Time;durP1;ratioP1;P1;durP2;ratioP2;P2;SDS_P1;SDS_P2;PMS_P1;PMS_P2;Temp;Humidity;BMP_temperature;BMP_pressure;BME280_temperature;BME280_humidity;BME280_pressure;Samples;Min_cycle;Max_cycle;Signal;HPM_P1;HPM_P2
2024/03/26 00:02:08;;;;;;;8.77;2.80;;;;;;;5.47;81.91;94753.50;4997319;28;20081;-69
2024/03/26 00:04:33;;;;;;;3.35;1.70;;;;;;;5.47;83.44;94754.25;4983595;28;20042;-69
2024/03/26 00:06:59;;;;;;;2.78;1.60;;;;;;;5.41;84.02;94763.16;5002290;28;20130;-70
2024/03/26 00:09:24;;;;;;;4.15;1.70;;;;;;;5.42;84.47;94762.00;4997864;28;20054;-69
2024/03/26 00:11:50;;;;;;;2.05;1.60;;;;;;;5.41;83.76;94753.06;4983963;28;20076;-69
2024/03/26 00:14:15;;;;;;;2.63;1.67;;;;;;;5.40;83.91;94745.31;4997029;28;20053;-71
2024/03/26 00:16:41;;;;;;;3.47;1.70;;;;;;;5.34;84.70;94744.91;5000459;28;20068;-68
2024/03/26 00:19:06;;;;;;;3.60;1.30;;;;;;;5.25;84.17;94742.53;4981057;28;20049;-68
2024/03/26 00:21:31;;;;;;;4.15;1.80;;;;;;;5.24;83.98;94754.56;5003972;28;20056;-70
2024/03/26 00:23:57;;;;;;;2.60;1.70;;;;;;;5.20;84.75;94744.81;4981696;28;20073;-69
2024/03/26 00:26:22;;;;;;;2.88;1.60;;;;;;;5.22;86.10;94751.44;4996084;28;20562;-71
2024/03/26 00:28:48;;;;;;;3.97;1.83;;;;;;;5.15;87.24;94754.13;5001978;28;20077;-69
2024/03/26 00:31:13;;;;;;;3.55;1.77;;;;;;;5.07;84.86;94755.22;4997427;28;20076;-70
2024/03/26 00:33:39;;;;;;;3.97;1.73;;;;;;;5.07;85.14;94755.22;5000287;28;20389;-69
2024/03/26 00:36:04;;;;;;;4.55;1.85;;;;;;;5.03;86.34;94744.34;4995915;28;20049;-68
2024/03/26 00:38:30;;;;;;;4.70;1.50;;;;;;;5.11;86.94;94745.94;5000014;28;20591;-67
2024/03/26 00:40:55;;;;;;;2.17;1.50;;;;;;;5.09;87.75;94745.53;4982900;28;20050;-70
2024/03/26 00:43:20;;;;;;;2.90;1.50;;;;;;;5.15;89.61;94738.59;4995910;28;20060;-68
2024/03/26 00:45:46;;;;;;;5.50;1.75;;;;;;;5.14;90.53;94744.41;4991762;28;20095;-70
2024/03/26 00:48:11;;;;;;;3.83;1.85;;;;;;;5.02;93.90;94740.06;4994893;28;20049;-69
2024/03/26 00:50:36;;;;;;;2.67;1.40;;;;;;;4.84;97.28;94736.47;4998905;28;20137;-71
2024/03/26 00:53:02;;;;;;;2.75;1.48;;;;;;;4.77;99.53;94737.19;4997370;28;20472;-65
2024/03/26 00:55:27;;;;;;;1.95;1.50;;;;;;;4.64;100.00;94725.84;4982679;28;20445;-68
2024/03/26 00:57:53;;;;;;;2.45;1.70;;;;;;;4.35;100.00;94725.63;5000691;28;20069;-67
2024/03/26 01:00:19;;;;;;;3.83;2.00;;;;;;;4.46;100.00;94731.16;4995794;28;20048;-71
2024/03/26 01:02:45;;;;;;;4.15;2.10;;;;;;;4.72;100.00;94735.63;4999025;28;20045;-69
2024/03/26 01:05:10;;;;;;;7.65;1.95;;;;;;;4.70;100.00;94732.50;4994674;28;20052;-68
2024/03/26 01:07:35;;;;;;;6.47;2.10;;;;;;;4.67;100.00;94716.22;5001312;28;20046;-70
2024/03/26 01:10:01;;;;;;;3.40;2.20;;;;;;;4.65;100.00;94719.28;5000178;28;20447;-64
2024/03/26 01:12:26;;;;;;;6.00;2.03;;;;;;;4.67;100.00;94724.34;5000054;28;20046;-68
2024/03/26 01:14:52;;;;;;;3.58;2.30;;;;;;;4.17;100.00;94716.56;5017726;28;20401;-68
2024/03/26 01:17:17;;;;;;;6.13;2.33;;;;;;;4.26;100.00;94710.84;5012100;28;20038;-69
2024/03/26 01:19:43;;;;;;;3.58;2.20;;;;;;;4.24;100.00;94710.44;5016035;28;20368;-68
2024/03/26 01:22:08;;;;;;;5.45;2.55;;;;;;;4.22;100.00;94710.81;4998296;28;20050;-69
2024/03/26 01:24:34;;;;;;;6.50;2.72;;;;;;;4.20;100.00;94711.19;4999021;28;20052;-70
2024/03/26 01:26:59;;;;;;;4.57;2.40;;;;;;;4.13;100.00;94711.13;4998751;28;20053;-70
2024/03/26 01:29:25;;;;;;;4.45;2.50;;;;;;;3.89;100.00;94714.38;4994789;28;20041;-69
2024/03/26 01:31:50;;;;;;;5.28;2.55;;;;;;;3.72;100.00;94705.69;4999872;28;20516;-69
2024/03/26 01:34:19;;;;;;;3.45;2.17;;;;;;;3.73;100.00;94699.13;4975908;28;20114;-66
2024/03/26 01:36:45;;;;;;;5.10;2.83;;;;;;;3.72;100.00;94692.16;4999038;28;20092;-67
2024/03/26 01:39:11;;;;;;;7.07;3.15;;;;;;;3.55;100.00;94690.06;4993956;28;20076;-70
2024/03/26 01:41:38;;;;;;;3.97;2.50;;;;;;;3.46;100.00;94674.09;4999256;28;20107;-68
2024/03/26 01:44:04;;;;;;;4.47;2.40;;;;;;;3.48;100.00;94679.94;4994276;28;20045;-65
2024/03/26 01:46:31;;;;;;;5.10;2.60;;;;;;;3.40;100.00;94687.19;4999804;28;20061;-68
2024/03/26 01:48:56;;;;;;;4.25;2.20;;;;;;;3.43;100.00;94681.03;4999770;28;20035;-68
2024/03/26 01:51:22;;;;;;;5.75;2.60;;;;;;;3.27;100.00;94687.78;4997035;28;20053;-69
2024/03/26 01:53:48;;;;;;;6.65;2.75;;;;;;;3.17;100.00;94681.91;5004745;28;20050;-70
2024/03/26 01:56:17;;;;;;;5.15;2.80;;;;;;;3.06;100.00;94676.34;4999452;28;20042;-69
2024/03/26 01:58:43;;;;;;;4.88;2.95;;;;;;;3.09;100.00;94657.81;5002159;28;20072;-68
2024/03/26 02:01:10;;;;;;;5.75;2.58;;;;;;;3.17;100.00;94667.56;4957603;28;1146872;-69
2024/03/26 02:03:36;;;;;;;3.80;2.75;;;;;;;3.05;100.00;94682.13;5004135;28;20046;-70
2024/03/26 02:06:02;;;;;;;7.53;2.35;;;;;;;3.03;100.00;94681.72;5001764;28;20124;-65
2024/03/26 02:08:30;;;;;;;5.95;2.95;;;;;;;3.02;100.00;94683.63;5002324;28;20069;-69
2024/03/26 02:10:56;;;;;;;5.97;2.83;;;;;;;3.15;100.00;94672.56;5011451;28;20050;-70
2024/03/26 02:13:22;;;;;;;5.78;3.00;;;;;;;3.18;100.00;94666.44;5003957;28;20550;-71
2024/03/26 02:15:47;;;;;;;6.97;3.15;;;;;;;3.19;100.00;94668.78;5005338;28;20457;-71
2024/03/26 02:18:13;;;;;;;7.97;3.70;;;;;;;3.21;100.00;94665.72;4999282;28;20050;-68
2024/03/26 02:20:38;;;;;;;5.25;3.05;;;;;;;3.22;100.00;94668.03;5006963;28;20042;-71
2024/03/26 02:23:04;;;;;;;5.60;2.80;;;;;;;2.94;100.00;94665.75;5001932;28;20128;-65
2024/03/26 02:25:29;;;;;;;6.88;3.17;;;;;;;2.92;100.00;94673.47;5004158;28;20050;-67
2024/03/26 02:27:54;;;;;;;8.52;3.10;;;;;;;2.96;100.00;94674.28;5003815;28;20062;-68
2024/03/26 02:30:20;;;;;;;9.68;3.20;;;;;;;2.90;100.00;94670.34;4980439;28;22616;-69
2024/03/26 02:32:45;;;;;;;5.38;2.67;;;;;;;2.82;100.00;94665.97;5003135;28;20087;-69
2024/03/26 02:35:11;;;;;;;5.43;3.03;;;;;;;2.85;100.00;94667.97;4998284;28;20037;-68
2024/03/26 02:37:36;;;;;;;6.68;3.08;;;;;;;2.69;100.00;94665.44;5003433;28;20042;-71
2024/03/26 02:40:03;;;;;;;7.38;3.05;;;;;;;2.56;100.00;94651.34;5000343;28;20180;-64
2024/03/26 02:42:29;;;;;;;9.57;4.00;;;;;;;2.46;100.00;94650.03;5002591;28;20042;-70
2024/03/26 02:44:55;;;;;;;8.95;3.90;;;;;;;2.57;100.00;94654.84;5002662;28;20128;-70
2024/03/26 02:47:21;;;;;;;7.03;3.17;;;;;;;2.12;100.00;94662.66;4997402;28;20488;-71
2024/03/26 02:49:46;;;;;;;6.10;3.40;;;;;;;1.97;100.00;94652.78;5004327;28;20046;-68
2024/03/26 02:52:12;;;;;;;6.88;3.58;;;;;;;1.86;100.00;94639.09;4998787;28;20071;-70
2024/03/26 02:54:37;;;;;;;7.50;3.58;;;;;;;1.78;100.00;94656.31;4985639;28;20042;-69
2024/03/26 02:57:03;;;;;;;10.73;3.88;;;;;;;1.55;100.00;94653.59;4999121;28;20412;-66
2024/03/26 02:59:29;;;;;;;6.93;3.35;;;;;;;1.52;100.00;94645.09;4985982;28;20107;-68
2024/03/26 03:01:55;;;;;;;5.32;3.65;;;;;;;1.56;100.00;94638.97;5003955;28;20080;-69
2024/03/26 03:04:20;;;;;;;6.38;3.50;;;;;;;1.84;100.00;94636.00;4997454;28;20046;-68
2024/03/26 03:06:46;;;;;;;9.73;3.88;;;;;;;1.87;100.00;94635.25;5001812;28;20054;-71
2024/03/26 03:09:12;;;;;;;6.57;3.50;;;;;;;1.94;100.00;94629.97;4997998;28;20233;-70
2024/03/26 03:11:38;;;;;;;7.85;3.75;;;;;;;2.16;100.00;94622.19;5001894;28;20132;-70
2024/03/26 03:14:04;;;;;;;8.80;3.60;;;;;;;2.21;100.00;94625.38;4997060;28;20125;-66
2024/03/26 03:16:29;;;;;;;6.55;3.80;;;;;;;2.03;100.00;94621.63;5003358;28;20053;-70
2024/03/26 03:18:54;;;;;;;7.38;4.10;;;;;;;1.71;100.00;94619.19;5002761;28;20041;-69
2024/03/26 03:21:20;;;;;;;6.57;4.10;;;;;;;1.63;100.00;94614.81;4997200;28;20084;-67
2024/03/26 03:23:45;;;;;;;6.40;3.90;;;;;;;1.73;100.00;94619.63;5010555;28;20065;-68
2024/03/26 03:26:10;;;;;;;9.32;4.20;;;;;;;1.80;100.00;94611.66;5018049;28;20054;-65
2024/03/26 03:28:36;;;;;;;10.00;4.40;;;;;;;2.01;100.00;94615.81;5003434;28;20034;-68
2024/03/26 03:31:01;;;;;;;6.47;3.83;;;;;;;2.19;100.00;94616.09;5000181;28;20548;-64
2024/03/26 03:33:27;;;;;;;10.07;4.20;;;;;;;2.37;100.00;94608.22;4997170;28;20046;-67
2024/03/26 03:35:53;;;;;;;6.65;3.58;;;;;;;2.39;100.00;94608.66;5002470;28;20042;-70
2024/03/26 03:38:18;;;;;;;9.60;4.50;;;;;;;2.47;100.00;94602.22;4997498;28;20043;-69
2024/03/26 03:40:44;;;;;;;9.98;4.38;;;;;;;2.49;100.00;94608.03;4999320;28;20081;-69
2024/03/26 03:43:09;;;;;;;6.75;4.20;;;;;;;2.38;100.00;94601.69;4996239;28;20049;-70
2024/03/26 03:45:34;;;;;;;9.15;4.30;;;;;;;2.57;100.00;94596.16;5001341;28;20053;-72
2024/03/26 03:48:00;;;;;;;6.88;3.80;;;;;;;2.56;100.00;94597.31;5000711;28;20099;-69
2024/03/26 03:50:25;;;;;;;9.77;4.20;;;;;;;2.37;100.00;94597.44;4996731;28;20046;-70
2024/03/26 03:52:50;;;;;;;6.70;3.90;;;;;;;2.17;100.00;94605.63;5001020;28;20042;-70
2024/03/26 03:55:16;;;;;;;9.25;4.30;;;;;;;2.07;100.00;94606.25;4997785;28;20144;-68
2024/03/26 03:57:41;;;;;;;6.70;3.92;;;;;;;1.96;100.00;94606.09;5000901;28;20144;-69
2024/03/26 04:00:08;;;;;;;7.88;4.45;;;;;;;1.97;100.00;94604.19;4995856;28;20056;-68
2024/03/26 04:02:33;;;;;;;6.25;3.90;;;;;;;1.93;100.00;94604.13;5001284;28;20144;-68
2024/03/26 04:04:59;;;;;;;7.53;4.00;;;;;;;2.02;100.00;94604.66;5000984;28;20129;-68
2024/03/26 04:07:24;;;;;;;6.93;3.83;;;;;;;1.91;100.00;94604.47;4995799;28;20053;-70
2024/03/26 04:09:53;;;;;;;7.97;3.95;;;;;;;2.01;100.00;94599.59;5000838;28;20054;-69
2024/03/26 04:12:19;;;;;;;6.05;4.03;;;;;;;2.06;100.00;94596.59;4977570;28;20050;-70
2024/03/26 04:14:44;;;;;;;5.72;3.97;;;;;;;2.10;100.00;94595.50;5000630;28;20046;-68
2024/03/26 04:17:09;;;;;;;7.72;3.60;;;;;;;2.47;100.00;94602.22;4995791;28;20046;-70
2024/03/26 04:19:36;;;;;;;6.72;3.45;;;;;;;2.43;100.00;94612.16;5002146;28;20042;-72
2024/03/26 04:22:02;;;;;;;8.45;3.80;;;;;;;2.47;100.00;94618.41;4998814;28;20259;-64
2024/03/26 04:24:27;;;;;;;6.40;3.50;;;;;;;2.46;100.00;94624.97;4999525;28;20045;-71
2024/03/26 04:26:52;;;;;;;9.98;4.10;;;;;;;2.26;100.00;94625.06;5000229;28;20145;-71
2024/03/26 04:29:18;;;;;;;9.65;3.70;;;;;;;2.23;100.00;94625.00;4996401;28;20042;-70
2024/03/26 04:31:43;;;;;;;6.63;4.00;;;;;;;2.05;100.00;94622.03;5002161;28;20049;-69
2024/03/26 04:34:09;;;;;;;10.85;3.92;;;;;;;1.91;100.00;94620.69;4998843;28;20084;-69
2024/03/26 04:36:34;;;;;;;10.52;5.00;;;;;;;1.77;100.00;94616.97;5002830;28;20053;-69
2024/03/26 04:39:00;;;;;;;7.85;4.75;;;;;;;1.66;100.00;94619.50;5003111;28;20104;-70
2024/03/26 04:41:26;;;;;;;6.05;4.20;;;;;;;1.58;100.00;94623.97;4996683;28;20408;-71
2024/03/26 04:43:51;;;;;;;7.63;4.45;;;;;;;1.53;100.00;94611.59;5000056;28;20049;-72
2024/03/26 04:46:17;;;;;;;7.57;4.15;;;;;;;1.77;100.00;94612.34;4996833;28;20046;-71
2024/03/26 04:48:42;;;;;;;7.00;4.05;;;;;;;1.70;100.00;94604.91;5000732;28;20139;-71
2024/03/26 04:51:08;;;;;;;6.10;3.97;;;;;;;1.78;100.00;94607.72;4996997;28;20100;-70
2024/03/26 04:53:33;;;;;;;8.27;3.90;;;;;;;1.78;100.00;94611.19;4983883;28;20077;-68
2024/03/26 04:55:59;;;;;;;7.45;4.40;;;;;;;1.71;100.00;94602.97;5008619;28;20076;-70
2024/03/26 04:58:24;;;;;;;8.95;4.22;;;;;;;1.59;100.00;94611.28;5004810;28;20057;-72
2024/03/26 05:00:49;;;;;;;7.68;4.32;;;;;;;1.59;100.00;94605.88;5002247;28;20119;-68
2024/03/26 05:03:15;;;;;;;7.53;4.35;;;;;;;1.70;100.00;94587.94;4996206;28;20057;-70
2024/03/26 05:05:40;;;;;;;7.75;4.10;;;;;;;1.87;100.00;94606.34;5000363;28;20061;-70
2024/03/26 05:08:06;;;;;;;11.40;4.97;;;;;;;1.77;100.00;94598.84;4987750;28;20053;-71
2024/03/26 05:10:31;;;;;;;9.82;4.35;;;;;;;1.68;100.00;94598.31;5001624;28;20409;-69
2024/03/26 05:12:56;;;;;;;9.13;5.13;;;;;;;1.50;100.00;94598.03;5001232;28;20176;-71
2024/03/26 05:15:22;;;;;;;10.80;4.95;;;;;;;1.31;100.00;94588.84;4994567;28;20465;-71
2024/03/26 05:17:47;;;;;;;7.60;4.95;;;;;;;1.26;100.00;94585.66;5000414;28;20374;-71
2024/03/26 05:20:13;;;;;;;9.43;5.15;;;;;;;1.06;100.00;94572.22;4996272;28;20135;-71
2024/03/26 05:22:39;;;;;;;10.35;4.95;;;;;;;0.89;100.00;94568.03;5000276;28;20038;-70
2024/03/26 05:25:06;;;;;;;8.27;5.20;;;;;;;0.88;100.00;94571.09;4995802;28;20034;-70
2024/03/26 05:27:32;;;;;;;9.57;4.63;;;;;;;0.93;100.00;94563.50;5000543;28;20135;-72
2024/03/26 05:29:57;;;;;;;9.48;5.28;;;;;;;1.14;100.00;94568.50;5002096;28;20049;-70
2024/03/26 05:32:23;;;;;;;10.65;4.70;;;;;;;1.45;100.00;94566.72;5013694;28;20034;-71
2024/03/26 05:34:49;;;;;;;8.95;5.13;;;;;;;1.72;100.00;94570.25;5013177;28;20136;-72
2024/03/26 05:37:18;;;;;;;9.02;4.68;;;;;;;1.77;100.00;94574.56;5011516;28;20408;-70
2024/03/26 05:39:43;;;;;;;8.50;5.07;;;;;;;2.07;100.00;94568.44;4998184;28;20046;-70
2024/03/26 05:42:10;;;;;;;9.25;6.13;;;;;;;2.09;100.00;94571.59;5009896;28;20403;-73
2024/03/26 05:44:35;;;;;;;12.65;5.45;;;;;;;2.12;100.00;94575.47;5004752;28;20045;-72
2024/03/26 05:47:01;;;;;;;10.20;5.50;;;;;;;2.04;100.00;94561.09;4998843;28;20046;-66
2024/03/26 05:49:26;;;;;;;12.00;6.70;;;;;;;2.10;100.00;94560.41;4983786;28;20061;-72
2024/03/26 05:51:52;;;;;;;11.00;6.90;;;;;;;2.44;100.00;94554.28;5007422;28;20048;-72
2024/03/26 05:54:17;;;;;;;9.40;4.80;;;;;;;2.69;100.00;94554.59;5000962;28;20065;-71
2024/03/26 05:56:43;;;;;;;10.48;4.35;;;;;;;2.85;100.00;94543.59;5001986;28;20061;-72
2024/03/26 05:59:08;;;;;;;9.75;4.60;;;;;;;2.96;100.00;94538.31;4984665;28;20148;-71
2024/03/26 06:01:34;;;;;;;9.50;4.28;;;;;;;2.93;100.00;94536.31;5001205;28;20127;-73
2024/03/26 06:03:59;;;;;;;9.23;4.43;;;;;;;3.04;100.00;94531.81;5000150;28;20046;-69
2024/03/26 06:06:25;;;;;;;11.30;4.40;;;;;;;3.17;100.00;94527.69;4995107;28;20081;-69
2024/03/26 06:08:50;;;;;;;6.80;4.13;;;;;;;3.33;100.00;94519.34;5000389;28;20401;-71
2024/03/26 06:11:15;;;;;;;8.23;3.90;;;;;;;3.38;100.00;94520.91;4995883;28;20069;-73
2024/03/26 06:13:41;;;;;;;10.88;4.50;;;;;;;2.72;100.00;94534.16;4982561;28;20050;-69
2024/03/26 06:16:08;;;;;;;7.47;3.97;;;;;;;2.68;100.00;94536.81;4994817;28;20193;-69
2024/03/26 06:18:34;;;;;;;19.58;7.15;;;;;;;2.82;100.00;94534.28;4999780;28;20073;-70
2024/03/26 06:21:00;;;;;;;28.27;13.95;;;;;;;2.98;100.00;94530.59;4999348;28;20045;-69
2024/03/26 06:23:26;;;;;;;13.70;6.85;;;;;;;3.02;100.00;94524.06;4996076;28;20188;-69
2024/03/26 06:25:51;;;;;;;10.43;5.40;;;;;;;3.17;100.00;94525.00;4997870;28;20041;-67
2024/03/26 06:28:18;;;;;;;10.60;5.20;;;;;;;3.44;100.00;94522.16;4994338;28;20038;-69
2024/03/26 06:30:43;;;;;;;9.43;5.03;;;;;;;3.64;100.00;94534.28;4964748;28;20073;-68
2024/03/26 06:33:11;;;;;;;8.02;4.80;;;;;;;3.85;100.00;94535.59;4977747;28;20501;-67
2024/03/26 06:35:37;;;;;;;11.75;4.82;;;;;;;3.66;100.00;94535.88;4998767;28;20053;-67
2024/03/26 06:38:05;;;;;;;12.10;4.85;;;;;;;3.84;100.00;94534.06;4997459;28;20049;-70
2024/03/26 06:40:31;;;;;;;9.68;4.63;;;;;;;4.09;100.00;94546.97;4995408;28;20346;-66
2024/03/26 06:42:56;;;;;;;11.85;4.82;;;;;;;4.25;100.00;94544.78;5003708;28;20046;-69
2024/03/26 06:45:22;;;;;;;9.32;4.65;;;;;;;4.54;100.00;94545.72;4998813;28;20233;-68
2024/03/26 06:47:47;;;;;;;7.22;4.38;;;;;;;4.69;100.00;94543.81;5003079;28;20050;-68
2024/03/26 06:50:12;;;;;;;7.90;5.00;;;;;;;5.69;100.00;94537.06;4994749;28;20042;-68
2024/03/26 06:52:38;;;;;;;6.47;4.13;;;;;;;6.22;100.00;94538.25;5004747;28;20053;-69
2024/03/26 06:55:04;;;;;;;6.80;4.10;;;;;;;6.23;100.00;94539.78;5003527;28;20056;-69
2024/03/26 06:57:29;;;;;;;8.98;4.32;;;;;;;7.10;100.00;94532.13;5004902;28;20378;-68
2024/03/26 06:59:55;;;;;;;7.80;4.25;;;;;;;7.31;100.00;94540.19;4986839;28;20049;-66
2024/03/26 07:02:20;;;;;;;12.10;4.00;;;;;;;7.47;100.00;94542.38;4997048;28;20357;-70
2024/03/26 07:04:46;;;;;;;11.85;5.93;;;;;;;7.68;100.00;94541.47;4984573;28;20050;-68
2024/03/26 07:07:11;;;;;;;6.25;4.00;;;;;;;8.06;98.62;94535.34;4996504;28;20038;-68
2024/03/26 07:09:38;;;;;;;6.38;4.10;;;;;;;8.29;96.13;94535.53;5002607;28;20089;-68
2024/03/26 07:12:04;;;;;;;13.75;4.18;;;;;;;8.23;98.85;94535.19;4997335;28;20045;-70
2024/03/26 07:14:29;;;;;;;9.95;4.53;;;;;;;8.48;96.56;94525.22;5002660;28;20041;-68
2024/03/26 07:16:55;;;;;;;10.57;5.07;;;;;;;8.56;95.25;94527.47;4985145;28;20126;-68
2024/03/26 07:19:20;;;;;;;22.83;16.38;;;;;;;8.28;96.34;94525.00;4998356;28;20538;-67
2024/03/26 07:21:46;;;;;;;11.93;5.65;;;;;;;7.93;99.08;94522.22;5007693;28;20041;-67
2024/03/26 07:24:11;;;;;;;6.78;4.05;;;;;;;8.31;98.20;94526.94;5002355;28;20408;-69
2024/03/26 07:26:36;;;;;;;11.32;5.05;;;;;;;8.84;95.81;94533.00;5004806;28;20773;-65
2024/03/26 07:29:02;;;;;;;6.05;3.75;;;;;;;9.49;90.32;94535.69;5004077;28;20053;-70
2024/03/26 07:31:27;;;;;;;6.78;3.80;;;;;;;10.04;81.50;94542.66;5002328;28;20069;-69
2024/03/26 07:33:53;;;;;;;6.53;4.18;;;;;;;9.62;85.05;94536.69;5001978;28;20053;-67
2024/03/26 07:36:19;;;;;;;10.23;4.03;;;;;;;9.94;81.11;94529.94;4996753;28;20118;-68
2024/03/26 07:38:44;;;;;;;8.10;3.95;;;;;;;10.64;77.42;94534.63;5007926;28;20105;-68
2024/03/26 07:41:10;;;;;;;8.57;3.55;;;;;;;11.06;74.90;94534.97;5018916;28;20033;-68
2024/03/26 07:43:35;;;;;;;7.75;3.40;;;;;;;12.34;67.05;94529.78;5004778;28;20046;-67
2024/03/26 07:46:01;;;;;;;4.47;3.00;;;;;;;13.19;61.04;94547.91;5001337;28;20103;-64
2024/03/26 07:48:26;;;;;;;7.10;3.30;;;;;;;14.28;56.57;94545.47;4979544;28;20400;-67
2024/03/26 07:50:52;;;;;;;4.32;2.65;;;;;;;13.79;54.94;94545.81;5002066;28;20077;-65
2024/03/26 07:53:17;;;;;;;8.93;3.38;;;;;;;13.89;54.36;94544.72;4995334;28;20691;-66
2024/03/26 07:55:42;;;;;;;4.78;2.55;;;;;;;15.02;49.95;94544.16;5002668;28;20448;-67
2024/03/26 07:58:08;;;;;;;11.60;3.38;;;;;;;14.07;51.08;94547.69;4996878;28;20038;-69
2024/03/26 08:00:34;;;;;;;5.85;2.55;;;;;;;15.43;48.21;94541.47;5003170;28;20045;-67
2024/03/26 08:03:00;;;;;;;6.07;3.00;;;;;;;15.66;44.84;94541.03;5002090;28;20501;-67
2024/03/26 08:05:25;;;;;;;6.18;2.88;;;;;;;14.80;47.20;94537.84;4997491;28;20049;-67
2024/03/26 08:07:51;;;;;;;13.00;4.20;;;;;;;15.94;46.00;94534.88;4999395;28;20073;-66
2024/03/26 08:10:17;;;;;;;5.57;3.13;;;;;;;16.19;45.43;94529.13;4996105;28;20069;-68
2024/03/26 08:12:42;;;;;;;4.60;2.85;;;;;;;15.83;45.48;94521.50;5001411;28;20048;-68
2024/03/26 08:15:08;;;;;;;8.35;3.05;;;;;;;15.94;44.21;94523.84;4996169;28;20038;-68
2024/03/26 08:17:33;;;;;;;10.40;5.80;;;;;;;13.52;51.19;94503.78;5001412;28;20048;-68
2024/03/26 08:19:59;;;;;;;8.75;4.30;;;;;;;14.15;51.92;94510.47;5001326;28;20069;-66
2024/03/26 08:22:24;;;;;;;7.40;3.00;;;;;;;16.32;44.89;94512.44;4995657;28;20050;-66
2024/03/26 08:24:50;;;;;;;6.75;3.28;;;;;;;16.88;42.73;94515.28;5001252;28;20384;-67
2024/03/26 08:27:15;;;;;;;4.97;2.67;;;;;;;17.98;40.24;94519.06;4996383;28;20053;-68
2024/03/26 08:29:41;;;;;;;7.95;3.10;;;;;;;18.30;38.65;94512.72;5000755;28;20041;-68
2024/03/26 08:32:07;;;;;;;4.63;2.35;;;;;;;17.66;39.26;94510.97;4996466;28;20042;-68
2024/03/26 08:34:32;;;;;;;6.20;2.35;;;;;;;16.84;39.91;94506.38;5001435;28;20053;-68
2024/03/26 08:36:57;;;;;;;3.47;2.22;;;;;;;17.46;39.07;94503.19;5000888;28;20080;-69
2024/03/26 08:39:23;;;;;;;4.22;2.40;;;;;;;18.02;39.22;94503.78;4977926;28;20540;-67
2024/03/26 08:41:48;;;;;;;12.70;2.40;;;;;;;18.37;38.27;94510.84;5001734;28;20378;-68
2024/03/26 08:44:13;;;;;;;8.52;2.92;;;;;;;17.61;39.64;94508.06;4994986;28;20038;-67
2024/03/26 08:46:39;;;;;;;6.32;2.50;;;;;;;16.68;41.96;94510.19;5002698;28;20053;-68
2024/03/26 08:49:05;;;;;;;7.50;2.47;;;;;;;15.96;43.65;94508.34;5005706;28;20485;-68
2024/03/26 08:51:30;;;;;;;5.50;2.53;;;;;;;15.98;43.70;94497.63;5010760;28;20106;-69
2024/03/26 08:53:56;;;;;;;9.43;2.60;;;;;;;16.35;42.21;94499.69;5007609;28;20042;-69
2024/03/26 08:56:22;;;;;;;5.30;2.50;;;;;;;15.78;43.91;94494.50;4979121;28;20625;-68
2024/03/26 08:58:51;;;;;;;6.25;3.10;;;;;;;15.73;43.15;94495.81;5001078;28;20048;-67
2024/03/26 09:01:16;;;;;;;6.97;2.90;;;;;;;16.80;42.26;94478.84;4994930;28;20573;-67
2024/03/26 09:03:42;;;;;;;6.35;2.50;;;;;;;17.34;40.60;94491.09;5001188;28;20132;-66
2024/03/26 09:06:08;;;;;;;5.22;2.60;;;;;;;17.19;40.82;94493.72;4978828;28;20385;-67
2024/03/26 09:08:34;;;;;;;4.78;2.58;;;;;;;17.29;41.25;94488.19;5001230;28;20045;-65
2024/03/26 09:10:59;;;;;;;7.65;2.88;;;;;;;17.60;41.20;94478.88;5001406;28;20046;-67
2024/03/26 09:13:25;;;;;;;5.20;3.08;;;;;;;16.79;41.45;94485.59;4999730;28;20515;-67
2024/03/26 09:15:51;;;;;;;5.05;2.70;;;;;;;16.63;41.53;94478.38;5005230;28;20388;-66
2024/03/26 09:18:16;;;;;;;6.75;2.55;;;;;;;17.77;39.66;94477.25;4996678;28;20501;-66
2024/03/26 09:20:41;;;;;;;5.45;2.28;;;;;;;18.59;38.49;94477.28;5003036;28;20069;-67
2024/03/26 09:23:07;;;;;;;5.13;2.65;;;;;;;18.09;38.96;94467.44;5005360;28;20465;-66
2024/03/26 09:25:32;;;;;;;5.35;2.45;;;;;;;17.47;40.34;94460.47;4989553;28;20070;-68
2024/03/26 09:27:58;;;;;;;5.88;2.75;;;;;;;17.14;40.92;94458.41;5003971;28;20044;-68
2024/03/26 09:30:27;;;;;;;5.35;2.83;;;;;;;14.74;46.78;94446.72;4998405;28;20058;-66
2024/03/26 09:32:53;;;;;;;6.57;2.70;;;;;;;15.91;45.05;94448.22;5002907;28;20038;-67
2024/03/26 09:35:19;;;;;;;7.30;2.80;;;;;;;15.95;45.19;94443.31;4997360;28;20041;-67
2024/03/26 09:37:45;;;;;;;11.00;3.10;;;;;;;15.70;46.28;94438.00;5003332;28;20038;-67
2024/03/26 09:40:12;;;;;;;10.65;3.88;;;;;;;15.65;46.92;94444.91;4996805;28;20050;-69
2024/03/26 09:42:41;;;;;;;8.18;3.97;;;;;;;15.11;48.86;94427.66;5001324;28;20037;-67
2024/03/26 09:45:08;;;;;;;5.72;3.08;;;;;;;14.26;50.41;94435.78;4997117;28;20156;-67
2024/03/26 09:47:34;;;;;;;5.32;3.38;;;;;;;13.84;51.75;94419.47;5014501;28;20042;-68
2024/03/26 09:50:04;;;;;;;11.68;3.90;;;;;;;14.43;52.48;94410.81;4995750;28;20034;-67
2024/03/26 09:52:33;;;;;;;;;;;;;;;14.75;51.79;94401.41;5000784;28;20065;-66
2024/03/26 09:55:00;;;;;;;8.45;3.10;;;;;;;14.68;52.16;94407.19;4982920;28;20415;-68
2024/03/26 09:57:27;;;;;;;7.72;3.10;;;;;;;14.49;52.38;94396.00;5000835;28;20073;-67
2024/03/26 09:59:53;;;;;;;6.20;2.92;;;;;;;13.97;54.73;94394.66;5016915;28;20081;-68
2024/03/26 10:02:21;;;;;;;8.27;3.33;;;;;;;13.68;55.01;94387.34;5012602;28;20038;-67
2024/03/26 10:04:46;;;;;;;5.70;2.90;;;;;;;13.95;55.80;94383.34;5006168;28;20104;-67
2024/03/26 10:07:12;;;;;;;11.52;3.33;;;;;;;14.06;56.25;94378.25;4996050;28;20042;-67
2024/03/26 10:09:37;;;;;;;8.15;2.90;;;;;;;14.10;55.15;94383.63;5001910;28;20505;-67
2024/03/26 10:12:04;;;;;;;6.75;3.50;;;;;;;14.10;55.40;94387.16;4999324;28;20054;-71
2024/03/26 10:14:30;;;;;;;6.32;4.03;;;;;;;13.75;56.27;94380.84;5006122;28;20042;-68
2024/03/26 10:16:57;;;;;;;8.05;4.35;;;;;;;13.58;57.40;94374.75;5006513;28;20049;-67
2024/03/26 10:19:23;;;;;;;6.57;2.92;;;;;;;12.98;61.27;94367.94;5002375;28;20516;-66
2024/03/26 10:21:49;;;;;;;6.57;3.40;;;;;;;12.75;63.16;94363.53;5003501;28;20046;-68
2024/03/26 10:24:14;;;;;;;7.90;3.25;;;;;;;12.66;62.75;94357.91;4981312;28;20046;-66
2024/03/26 10:26:39;;;;;;;6.38;3.40;;;;;;;12.48;63.41;94355.69;4986857;28;20052;-65
2024/03/26 10:29:05;;;;;;;7.22;3.35;;;;;;;12.15;66.57;94360.50;4999366;28;20030;-66
2024/03/26 10:31:30;;;;;;;6.95;3.65;;;;;;;12.05;66.99;94354.88;5002967;28;20504;-65
2024/03/26 10:33:56;;;;;;;9.48;3.80;;;;;;;11.74;66.01;94351.78;5007979;28;20104;-68
2024/03/26 10:36:22;;;;;;;7.18;4.30;;;;;;;11.43;68.13;94348.63;4998728;28;20045;-65
2024/03/26 10:38:53;;;;;;;6.63;3.25;;;;;;;11.19;70.06;94343.31;5003937;28;20038;-67
2024/03/26 10:41:26;;;;;;;8.35;3.13;;;;;;;11.24;72.39;94334.59;4980917;28;20376;-65
2024/03/26 10:43:52;;;;;;;9.60;4.00;;;;;;;11.13;74.35;94336.81;5004818;28;20201;-68
2024/03/26 10:46:20;;;;;;;6.07;3.55;;;;;;;11.29;75.97;94342.31;4998109;28;20042;-65
2024/03/26 10:48:45;;;;;;;7.57;3.90;;;;;;;11.43;75.67;94332.97;5002962;28;20104;-66
2024/03/26 10:51:12;;;;;;;7.72;3.65;;;;;;;11.66;75.26;94329.22;4997769;28;20045;-66
2024/03/26 10:53:38;;;;;;;9.20;3.97;;;;;;;11.71;74.78;94325.19;4985004;28;20046;-68
2024/03/26 10:56:05;;;;;;;9.02;3.65;;;;;;;11.76;74.97;94321.19;4998014;28;20034;-67
2024/03/26 10:58:32;;;;;;;6.80;3.75;;;;;;;11.83;73.59;94315.50;5003235;28;20042;-67
2024/03/26 11:00:58;;;;;;;8.45;3.80;;;;;;;11.69;75.04;94319.38;5003783;28;20041;-67
2024/03/26 11:03:24;;;;;;;7.78;3.63;;;;;;;11.57;77.81;94307.13;4998610;28;20803;-66
2024/03/26 11:05:49;;;;;;;11.27;4.03;;;;;;;11.67;79.00;94305.34;5002051;28;20678;-66
2024/03/26 11:08:19;;;;;;;8.07;4.25;;;;;;;11.72;77.80;94298.53;4999379;28;20042;-69
2024/03/26 11:11:05;;;;;;;7.65;3.72;;;;;;;11.61;77.50;94294.13;5003041;28;20072;-68
2024/03/26 11:13:33;;;;;;;12.20;3.83;;;;;;;11.39;79.30;94285.66;5003303;28;20054;-70
2024/03/26 11:15:59;;;;;;;5.88;3.45;;;;;;;11.15;81.41;94276.88;5003764;28;20045;-67
2024/03/26 11:18:36;;;;;;;7.47;3.40;;;;;;;11.16;81.92;94277.66;4998365;28;20038;-67
2024/03/26 11:21:09;;;;;;;7.95;4.13;;;;;;;10.78;85.95;94275.44;5000714;28;20068;-69
2024/03/26 11:23:36;;;;;;;6.68;3.53;;;;;;;10.71;88.75;94279.09;5001630;28;20034;-67
2024/03/26 11:26:02;;;;;;;8.93;3.72;;;;;;;11.15;85.07;94265.94;5000341;28;20045;-71
2024/03/26 11:28:29;;;;;;;7.05;3.85;;;;;;;11.22;82.39;94275.94;5002410;28;20081;-68